sensor_id;sensor_type;location;lat;lon;timestamp;P1;durP1;ratioP1;P2;durP2;ratioP2
40254;SDS011;25973;52.368;4.940;2022-12-29T00:01:13;7.80;;;3.95;;
40254;SDS011;25973;52.368;4.940;2022-12-29T00:03:39;12.57;;;4.57;;
40254;SDS011;25973;52.368;4.940;2022-12-29T00:06:07;7.18;;;3.67;;
40254;SDS011;25973;52.368;4.940;2022-12-29T00:08:33;6.05;;;2.65;;
40254;SDS011;25973;52.368;4.940;2022-12-29T00:11:06;2.67;;;1.23;;
40254;SDS011;25973;52.368;4.940;2022-12-29T00:13:39;3.80;;;1.55;;
40254;SDS011;25973;52.368;4.940;2022-12-29T00:16:24;2.70;;;1.15;;
40254;SDS011;25973;52.368;4.940;2022-12-29T00:18:50;2.22;;;1.20;;
40254;SDS011;25973;52.368;4.940;2022-12-29T00:21:16;7.57;;;1.50;;
40254;SDS011;25973;52.368;4.940;2022-12-29T00:24:01;3.33;;;1.48;;
40254;SDS011;25973;52.368;4.940;2022-12-29T00:26:46;4.15;;;1.83;;
40254;SDS011;25973;52.368;4.940;2022-12-29T00:29:41;4.45;;;1.80;;
40254;SDS011;25973;52.368;4.940;2022-12-29T00:32:25;2.53;;;1.23;;
40254;SDS011;25973;52.368;4.940;2022-12-29T00:35:11;2.97;;;1.38;;
40254;SDS011;25973;52.368;4.940;2022-12-29T00:37:40;5.95;;;3.05;;
40254;SDS011;25973;52.368;4.940;2022-12-29T00:40:27;5.03;;;2.45;;
40254;SDS011;25973;52.368;4.940;2022-12-29T00:43:11;1.52;;;0.77;;
40254;SDS011;25973;52.368;4.940;2022-12-29T00:45:55;4.82;;;1.33;;
40254;SDS011;25973;52.368;4.940;2022-12-29T00:48:21;2.50;;;1.20;;
40254;SDS011;25973;52.368;4.940;2022-12-29T00:51:06;2.35;;;1.05;;
40254;SDS011;25973;52.368;4.940;2022-12-29T00:53:41;1.27;;;0.77;;
40254;SDS011;25973;52.368;4.940;2022-12-29T00:56:07;2.50;;;0.98;;
40254;SDS011;25973;52.368;4.940;2022-12-29T00:58:32;2.08;;;0.88;;
40254;SDS011;25973;52.368;4.940;2022-12-29T01:01:05;2.53;;;0.80;;
40254;SDS011;25973;52.368;4.940;2022-12-29T01:03:32;2.08;;;0.85;;
40254;SDS011;25973;52.368;4.940;2022-12-29T01:06:02;1.92;;;0.80;;
40254;SDS011;25973;52.368;4.940;2022-12-29T01:08:29;4.05;;;0.90;;
40254;SDS011;25973;52.368;4.940;2022-12-29T01:11:02;3.95;;;0.85;;
40254;SDS011;25973;52.368;4.940;2022-12-29T01:13:28;1.52;;;0.88;;
40254;SDS011;25973;52.368;4.940;2022-12-29T01:15:54;1.33;;;0.75;;
40254;SDS011;25973;52.368;4.940;2022-12-29T01:18:20;1.25;;;0.60;;
40254;SDS011;25973;52.368;4.940;2022-12-29T01:20:47;1.13;;;0.43;;
40254;SDS011;25973;52.368;4.940;2022-12-29T01:23:13;1.92;;;0.88;;
40254;SDS011;25973;52.368;4.940;2022-12-29T01:25:38;3.45;;;0.80;;
40254;SDS011;25973;52.368;4.940;2022-12-29T01:28:04;2.20;;;0.68;;
40254;SDS011;25973;52.368;4.940;2022-12-29T01:30:29;1.25;;;0.63;;
40254;SDS011;25973;52.368;4.940;2022-12-29T01:32:55;3.40;;;0.52;;
40254;SDS011;25973;52.368;4.940;2022-12-29T01:35:21;1.00;;;0.52;;
40254;SDS011;25973;52.368;4.940;2022-12-29T01:37:46;0.55;;;0.50;;
40254;SDS011;25973;52.368;4.940;2022-12-29T01:40:12;0.95;;;0.55;;
40254;SDS011;25973;52.368;4.940;2022-12-29T01:42:37;2.38;;;0.90;;
40254;SDS011;25973;52.368;4.940;2022-12-29T01:45:08;0.30;;;0.30;;
40254;SDS011;25973;52.368;4.940;2022-12-29T01:47:39;1.25;;;0.65;;
40254;SDS011;25973;52.368;4.940;2022-12-29T01:50:55;0.90;;;0.55;;
40254;SDS011;25973;52.368;4.940;2022-12-29T01:53:12;1.38;;;0.60;;
40254;SDS011;25973;52.368;4.940;2022-12-29T01:55:48;3.58;;;0.95;;
40254;SDS011;25973;52.368;4.940;2022-12-29T01:58:17;4.15;;;0.70;;
40254;SDS011;25973;52.368;4.940;2022-12-29T02:00:45;1.20;;;0.52;;
40254;SDS011;25973;52.368;4.940;2022-12-29T02:03:11;4.15;;;0.95;;
40254;SDS011;25973;52.368;4.940;2022-12-29T02:08:05;4.10;;;0.70;;
40254;SDS011;25973;52.368;4.940;2022-12-29T02:10:31;3.33;;;1.00;;
40254;SDS011;25973;52.368;4.940;2022-12-29T02:12:59;3.72;;;0.80;;
40254;SDS011;25973;52.368;4.940;2022-12-29T02:15:30;5.20;;;0.82;;
40254;SDS011;25973;52.368;4.940;2022-12-29T02:18:18;5.65;;;0.70;;
40254;SDS011;25973;52.368;4.940;2022-12-29T02:26:08;1.17;;;0.40;;
40254;SDS011;25973;52.368;4.940;2022-12-29T02:28:42;2.33;;;0.52;;
40254;SDS011;25973;52.368;4.940;2022-12-29T02:31:41;3.42;;;0.98;;
40254;SDS011;25973;52.368;4.940;2022-12-29T02:34:23;6.03;;;0.82;;
40254;SDS011;25973;52.368;4.940;2022-12-29T02:37:04;6.32;;;2.15;;
40254;SDS011;25973;52.368;4.940;2022-12-29T02:42:26;6.30;;;1.25;;
40254;SDS011;25973;52.368;4.940;2022-12-29T02:45:14;6.60;;;0.95;;
40254;SDS011;25973;52.368;4.940;2022-12-29T02:50:17;8.05;;;0.90;;
40254;SDS011;25973;52.368;4.940;2022-12-29T02:52:59;3.05;;;0.95;;
40254;SDS011;25973;52.368;4.940;2022-12-29T02:55:27;2.20;;;0.68;;
40254;SDS011;25973;52.368;4.940;2022-12-29T03:00:53;3.20;;;0.93;;
40254;SDS011;25973;52.368;4.940;2022-12-29T03:09:25;4.15;;;0.45;;
40254;SDS011;25973;52.368;4.940;2022-12-29T03:12:07;4.78;;;0.60;;
40254;SDS011;25973;52.368;4.940;2022-12-29T03:17:57;2.95;;;0.57;;
40254;SDS011;25973;52.368;4.940;2022-12-29T03:20:38;3.33;;;0.60;;
40254;SDS011;25973;52.368;4.940;2022-12-29T03:23:15;3.75;;;0.98;;
40254;SDS011;25973;52.368;4.940;2022-12-29T03:25:44;4.57;;;0.70;;
40254;SDS011;25973;52.368;4.940;2022-12-29T03:28:27;3.38;;;0.73;;
40254;SDS011;25973;52.368;4.940;2022-12-29T03:30:56;10.63;;;1.10;;
40254;SDS011;25973;52.368;4.940;2022-12-29T03:33:24;9.65;;;1.35;;
40254;SDS011;25973;52.368;4.940;2022-12-29T03:35:53;4.18;;;0.85;;
40254;SDS011;25973;52.368;4.940;2022-12-29T03:40:57;4.28;;;1.30;;
40254;SDS011;25973;52.368;4.940;2022-12-29T03:43:25;13.82;;;1.50;;
40254;SDS011;25973;52.368;4.940;2022-12-29T03:45:51;6.18;;;0.57;;
40254;SDS011;25973;52.368;4.940;2022-12-29T03:48:17;10.38;;;1.38;;
40254;SDS011;25973;52.368;4.940;2022-12-29T03:50:42;4.80;;;0.93;;
40254;SDS011;25973;52.368;4.940;2022-12-29T03:53:08;9.55;;;2.05;;
40254;SDS011;25973;52.368;4.940;2022-12-29T03:55:34;10.52;;;1.38;;
40254;SDS011;25973;52.368;4.940;2022-12-29T03:57:59;7.07;;;1.13;;
40254;SDS011;25973;52.368;4.940;2022-12-29T04:00:25;9.75;;;1.05;;
40254;SDS011;25973;52.368;4.940;2022-12-29T04:02:50;8.48;;;1.02;;
40254;SDS011;25973;52.368;4.940;2022-12-29T04:05:16;9.85;;;1.48;;
40254;SDS011;25973;52.368;4.940;2022-12-29T04:07:41;15.23;;;2.17;;
40254;SDS011;25973;52.368;4.940;2022-12-29T04:10:07;10.10;;;1.60;;
40254;SDS011;25973;52.368;4.940;2022-12-29T04:12:35;6.90;;;1.95;;
40254;SDS011;25973;52.368;4.940;2022-12-29T04:15:01;5.53;;;1.70;;
40254;SDS011;25973;52.368;4.940;2022-12-29T04:17:26;9.13;;;2.63;;
40254;SDS011;25973;52.368;4.940;2022-12-29T04:19:52;6.60;;;0.85;;
40254;SDS011;25973;52.368;4.940;2022-12-29T04:22:37;6.60;;;0.88;;
40254;SDS011;25973;52.368;4.940;2022-12-29T04:25:03;7.63;;;0.98;;
40254;SDS011;25973;52.368;4.940;2022-12-29T04:27:28;9.38;;;1.45;;
40254;SDS011;25973;52.368;4.940;2022-12-29T04:29:54;9.35;;;1.13;;
40254;SDS011;25973;52.368;4.940;2022-12-29T04:32:19;5.03;;;0.93;;
40254;SDS011;25973;52.368;4.940;2022-12-29T04:34:48;7.70;;;0.95;;
40254;SDS011;25973;52.368;4.940;2022-12-29T04:37:13;8.00;;;1.33;;
40254;SDS011;25973;52.368;4.940;2022-12-29T04:39:39;14.35;;;0.73;;
40254;SDS011;25973;52.368;4.940;2022-12-29T04:42:04;4.10;;;0.80;;
40254;SDS011;25973;52.368;4.940;2022-12-29T04:44:30;10.70;;;1.30;;
40254;SDS011;25973;52.368;4.940;2022-12-29T04:46:55;6.22;;;1.40;;
40254;SDS011;25973;52.368;4.940;2022-12-29T04:49:21;7.15;;;1.17;;
40254;SDS011;25973;52.368;4.940;2022-12-29T04:51:46;6.57;;;1.58;;
40254;SDS011;25973;52.368;4.940;2022-12-29T04:54:12;12.82;;;1.48;;
40254;SDS011;25973;52.368;4.940;2022-12-29T04:56:37;10.80;;;1.13;;
40254;SDS011;25973;52.368;4.940;2022-12-29T04:59:03;11.00;;;2.33;;
40254;SDS011;25973;52.368;4.940;2022-12-29T05:01:29;8.25;;;1.27;;
40254;SDS011;25973;52.368;4.940;2022-12-29T05:03:54;14.82;;;1.88;;
40254;SDS011;25973;52.368;4.940;2022-12-29T05:06:20;25.77;;;1.52;;
40254;SDS011;25973;52.368;4.940;2022-12-29T05:08:45;10.32;;;2.60;;
40254;SDS011;25973;52.368;4.940;2022-12-29T05:11:11;6.13;;;1.73;;
40254;SDS011;25973;52.368;4.940;2022-12-29T05:13:37;10.27;;;1.70;;
40254;SDS011;25973;52.368;4.940;2022-12-29T05:16:02;8.05;;;1.35;;
40254;SDS011;25973;52.368;4.940;2022-12-29T05:18:28;5.35;;;1.17;;
40254;SDS011;25973;52.368;4.940;2022-12-29T05:20:53;10.63;;;1.35;;
40254;SDS011;25973;52.368;4.940;2022-12-29T05:23:19;7.65;;;1.35;;
40254;SDS011;25973;52.368;4.940;2022-12-29T05:25:44;7.50;;;1.50;;
40254;SDS011;25973;52.368;4.940;2022-12-29T05:28:13;9.40;;;1.00;;
40254;SDS011;25973;52.368;4.940;2022-12-29T05:30:39;4.85;;;1.27;;
40254;SDS011;25973;52.368;4.940;2022-12-29T05:33:04;15.25;;;2.25;;
40254;SDS011;25973;52.368;4.940;2022-12-29T05:35:31;12.75;;;1.50;;
40254;SDS011;25973;52.368;4.940;2022-12-29T05:37:57;10.90;;;1.20;;
40254;SDS011;25973;52.368;4.940;2022-12-29T05:40:23;12.85;;;1.45;;
40254;SDS011;25973;52.368;4.940;2022-12-29T05:42:48;9.38;;;0.82;;
40254;SDS011;25973;52.368;4.940;2022-12-29T05:45:14;8.48;;;1.55;;
40254;SDS011;25973;52.368;4.940;2022-12-29T05:47:40;7.95;;;1.10;;
40254;SDS011;25973;52.368;4.940;2022-12-29T05:50:05;8.20;;;1.35;;
40254;SDS011;25973;52.368;4.940;2022-12-29T05:52:31;12.27;;;1.40;;
40254;SDS011;25973;52.368;4.940;2022-12-29T05:54:57;11.90;;;1.65;;
40254;SDS011;25973;52.368;4.940;2022-12-29T05:57:22;9.88;;;1.77;;
40254;SDS011;25973;52.368;4.940;2022-12-29T05:59:48;11.43;;;1.10;;
40254;SDS011;25973;52.368;4.940;2022-12-29T06:02:13;13.18;;;1.70;;
40254;SDS011;25973;52.368;4.940;2022-12-29T06:04:39;6.93;;;1.60;;
40254;SDS011;25973;52.368;4.940;2022-12-29T06:07:04;13.32;;;2.22;;
40254;SDS011;25973;52.368;4.940;2022-12-29T06:09:30;9.00;;;1.63;;
40254;SDS011;25973;52.368;4.940;2022-12-29T06:11:55;9.15;;;1.55;;
40254;SDS011;25973;52.368;4.940;2022-12-29T06:14:21;6.68;;;1.23;;
40254;SDS011;25973;52.368;4.940;2022-12-29T06:16:46;11.38;;;1.48;;
40254;SDS011;25973;52.368;4.940;2022-12-29T06:19:12;13.48;;;1.67;;
40254;SDS011;25973;52.368;4.940;2022-12-29T06:21:37;10.25;;;1.77;;
40254;SDS011;25973;52.368;4.940;2022-12-29T06:24:06;7.95;;;1.00;;
40254;SDS011;25973;52.368;4.940;2022-12-29T06:26:32;11.85;;;1.40;;
40254;SDS011;25973;52.368;4.940;2022-12-29T06:28:57;6.60;;;1.35;;
40254;SDS011;25973;52.368;4.940;2022-12-29T06:31:23;12.82;;;2.92;;
40254;SDS011;25973;52.368;4.940;2022-12-29T06:33:48;13.70;;;1.50;;
40254;SDS011;25973;52.368;4.940;2022-12-29T06:36:14;12.05;;;1.85;;
40254;SDS011;25973;52.368;4.940;2022-12-29T06:38:39;21.00;;;2.53;;
40254;SDS011;25973;52.368;4.940;2022-12-29T06:41:05;14.65;;;1.70;;
40254;SDS011;25973;52.368;4.940;2022-12-29T06:43:30;8.18;;;1.23;;
40254;SDS011;25973;52.368;4.940;2022-12-29T06:45:57;13.45;;;1.70;;
40254;SDS011;25973;52.368;4.940;2022-12-29T06:48:25;16.65;;;2.42;;
40254;SDS011;25973;52.368;4.940;2022-12-29T06:50:51;14.23;;;2.00;;
40254;SDS011;25973;52.368;4.940;2022-12-29T06:53:16;16.98;;;2.72;;
40254;SDS011;25973;52.368;4.940;2022-12-29T06:55:42;14.18;;;1.83;;
40254;SDS011;25973;52.368;4.940;2022-12-29T06:58:07;7.35;;;1.10;;
40254;SDS011;25973;52.368;4.940;2022-12-29T07:00:33;6.47;;;1.65;;
40254;SDS011;25973;52.368;4.940;2022-12-29T07:02:59;21.35;;;2.50;;
40254;SDS011;25973;52.368;4.940;2022-12-29T07:05:25;11.07;;;1.58;;
40254;SDS011;25973;52.368;4.940;2022-12-29T07:07:52;17.42;;;2.45;;
40254;SDS011;25973;52.368;4.940;2022-12-29T07:10:18;12.85;;;1.63;;
40254;SDS011;25973;52.368;4.940;2022-12-29T07:12:44;9.18;;;2.25;;
40254;SDS011;25973;52.368;4.940;2022-12-29T07:15:09;12.07;;;2.33;;
40254;SDS011;25973;52.368;4.940;2022-12-29T07:17:38;14.23;;;2.08;;
40254;SDS011;25973;52.368;4.940;2022-12-29T07:20:04;14.18;;;1.55;;
40254;SDS011;25973;52.368;4.940;2022-12-29T07:22:30;15.13;;;2.50;;
40254;SDS011;25973;52.368;4.940;2022-12-29T07:24:56;21.75;;;2.65;;
40254;SDS011;25973;52.368;4.940;2022-12-29T07:27:21;13.80;;;2.30;;
40254;SDS011;25973;52.368;4.940;2022-12-29T07:29:47;15.50;;;2.47;;
40254;SDS011;25973;52.368;4.940;2022-12-29T07:32:12;13.52;;;2.30;;
40254;SDS011;25973;52.368;4.940;2022-12-29T07:34:38;20.92;;;2.97;;
40254;SDS011;25973;52.368;4.940;2022-12-29T07:37:04;17.83;;;2.50;;
40254;SDS011;25973;52.368;4.940;2022-12-29T07:39:30;21.65;;;2.28;;
40254;SDS011;25973;52.368;4.940;2022-12-29T07:41:56;14.40;;;2.10;;
40254;SDS011;25973;52.368;4.940;2022-12-29T07:44:21;20.27;;;2.38;;
40254;SDS011;25973;52.368;4.940;2022-12-29T07:46:47;13.63;;;1.70;;
40254;SDS011;25973;52.368;4.940;2022-12-29T07:49:12;13.70;;;2.65;;
40254;SDS011;25973;52.368;4.940;2022-12-29T07:51:38;18.30;;;2.03;;
40254;SDS011;25973;52.368;4.940;2022-12-29T07:54:03;20.52;;;2.88;;
40254;SDS011;25973;52.368;4.940;2022-12-29T07:56:29;15.88;;;1.83;;
40254;SDS011;25973;52.368;4.940;2022-12-29T07:58:54;12.15;;;2.03;;
40254;SDS011;25973;52.368;4.940;2022-12-29T08:01:20;11.40;;;1.95;;
40254;SDS011;25973;52.368;4.940;2022-12-29T08:03:48;12.55;;;2.53;;
40254;SDS011;25973;52.368;4.940;2022-12-29T08:06:14;15.35;;;1.42;;
40254;SDS011;25973;52.368;4.940;2022-12-29T08:08:40;12.98;;;2.72;;
40254;SDS011;25973;52.368;4.940;2022-12-29T08:11:05;18.35;;;1.95;;
40254;SDS011;25973;52.368;4.940;2022-12-29T08:13:31;18.42;;;2.22;;
40254;SDS011;25973;52.368;4.940;2022-12-29T08:15:57;10.25;;;1.52;;
40254;SDS011;25973;52.368;4.940;2022-12-29T08:18:23;9.68;;;2.28;;
40254;SDS011;25973;52.368;4.940;2022-12-29T08:20:49;14.18;;;1.75;;
40254;SDS011;25973;52.368;4.940;2022-12-29T08:23:15;8.38;;;1.67;;
40254;SDS011;25973;52.368;4.940;2022-12-29T08:25:40;19.17;;;1.92;;
40254;SDS011;25973;52.368;4.940;2022-12-29T08:28:06;14.93;;;2.38;;
40254;SDS011;25973;52.368;4.940;2022-12-29T08:30:31;4.82;;;1.52;;
40254;SDS011;25973;52.368;4.940;2022-12-29T08:32:57;9.18;;;1.70;;
40254;SDS011;25973;52.368;4.940;2022-12-29T08:35:22;14.75;;;2.30;;
40254;SDS011;25973;52.368;4.940;2022-12-29T08:37:48;17.10;;;1.90;;
40254;SDS011;25973;52.368;4.940;2022-12-29T08:40:14;16.80;;;1.40;;
40254;SDS011;25973;52.368;4.940;2022-12-29T08:42:39;13.55;;;2.20;;
40254;SDS011;25973;52.368;4.940;2022-12-29T08:45:05;10.48;;;1.52;;
40254;SDS011;25973;52.368;4.940;2022-12-29T08:47:31;7.05;;;1.20;;
40254;SDS011;25973;52.368;4.940;2022-12-29T08:49:57;13.85;;;2.22;;
40254;SDS011;25973;52.368;4.940;2022-12-29T08:52:22;8.38;;;1.23;;
40254;SDS011;25973;52.368;4.940;2022-12-29T08:54:48;16.88;;;3.10;;
40254;SDS011;25973;52.368;4.940;2022-12-29T08:57:13;13.73;;;1.95;;
40254;SDS011;25973;52.368;4.940;2022-12-29T08:59:39;12.10;;;2.65;;
40254;SDS011;25973;52.368;4.940;2022-12-29T09:02:05;14.07;;;2.05;;
40254;SDS011;25973;52.368;4.940;2022-12-29T09:04:30;14.77;;;1.60;;
40254;SDS011;25973;52.368;4.940;2022-12-29T09:06:56;11.20;;;1.85;;
40254;SDS011;25973;52.368;4.940;2022-12-29T09:09:22;11.80;;;2.22;;
40254;SDS011;25973;52.368;4.940;2022-12-29T09:11:47;15.60;;;1.55;;
40254;SDS011;25973;52.368;4.940;2022-12-29T09:14:13;13.70;;;1.80;;
40254;SDS011;25973;52.368;4.940;2022-12-29T09:16:39;15.43;;;1.38;;
40254;SDS011;25973;52.368;4.940;2022-12-29T09:19:04;14.98;;;2.88;;
40254;SDS011;25973;52.368;4.940;2022-12-29T09:21:30;8.25;;;1.90;;
40254;SDS011;25973;52.368;4.940;2022-12-29T09:23:56;18.65;;;2.67;;
40254;SDS011;25973;52.368;4.940;2022-12-29T09:26:21;8.48;;;2.00;;
40254;SDS011;25973;52.368;4.940;2022-12-29T09:28:47;12.15;;;2.25;;
40254;SDS011;25973;52.368;4.940;2022-12-29T09:31:13;8.90;;;1.10;;
40254;SDS011;25973;52.368;4.940;2022-12-29T09:33:39;9.07;;;1.20;;
40254;SDS011;25973;52.368;4.940;2022-12-29T09:36:05;9.05;;;1.55;;
40254;SDS011;25973;52.368;4.940;2022-12-29T09:38:30;15.07;;;2.47;;
40254;SDS011;25973;52.368;4.940;2022-12-29T09:41:01;12.73;;;1.80;;
40254;SDS011;25973;52.368;4.940;2022-12-29T09:43:57;8.73;;;1.58;;
40254;SDS011;25973;52.368;4.940;2022-12-29T09:49:16;12.45;;;1.92;;
40254;SDS011;25973;52.368;4.940;2022-12-29T09:51:48;11.98;;;1.65;;
40254;SDS011;25973;52.368;4.940;2022-12-29T09:54:24;14.43;;;2.10;;
40254;SDS011;25973;52.368;4.940;2022-12-29T09:57:17;17.88;;;3.17;;
40254;SDS011;25973;52.368;4.940;2022-12-29T10:00:15;14.75;;;5.05;;
40254;SDS011;25973;52.368;4.940;2022-12-29T10:02:44;17.92;;;2.97;;
40254;SDS011;25973;52.368;4.940;2022-12-29T10:10:52;16.08;;;2.85;;
40254;SDS011;25973;52.368;4.940;2022-12-29T10:13:27;18.35;;;2.65;;
40254;SDS011;25973;52.368;4.940;2022-12-29T10:20:56;20.83;;;2.63;;
40254;SDS011;25973;52.368;4.940;2022-12-29T10:26:12;13.85;;;1.60;;
40254;SDS011;25973;52.368;4.940;2022-12-29T10:31:17;23.50;;;2.67;;
40254;SDS011;25973;52.368;4.940;2022-12-29T10:33:48;28.38;;;3.60;;
40254;SDS011;25973;52.368;4.940;2022-12-29T10:36:21;11.68;;;2.60;;
40254;SDS011;25973;52.368;4.940;2022-12-29T10:39:30;19.63;;;2.92;;
40254;SDS011;25973;52.368;4.940;2022-12-29T10:42:01;24.90;;;3.22;;
40254;SDS011;25973;52.368;4.940;2022-12-29T10:44:30;29.75;;;4.65;;
40254;SDS011;25973;52.368;4.940;2022-12-29T10:47:00;20.95;;;2.33;;
40254;SDS011;25973;52.368;4.940;2022-12-29T10:49:30;20.60;;;3.30;;
40254;SDS011;25973;52.368;4.940;2022-12-29T10:52:01;20.95;;;3.47;;
40254;SDS011;25973;52.368;4.940;2022-12-29T10:54:46;25.25;;;3.35;;
40254;SDS011;25973;52.368;4.940;2022-12-29T10:57:30;20.50;;;2.53;;
40254;SDS011;25973;52.368;4.940;2022-12-29T10:59:58;19.55;;;2.35;;
40254;SDS011;25973;52.368;4.940;2022-12-29T11:02:38;21.67;;;2.42;;
40254;SDS011;25973;52.368;4.940;2022-12-29T11:08:10;18.58;;;2.10;;
40254;SDS011;25973;52.368;4.940;2022-12-29T11:10:42;15.93;;;2.75;;
40254;SDS011;25973;52.368;4.940;2022-12-29T11:13:16;21.02;;;3.05;;
40254;SDS011;25973;52.368;4.940;2022-12-29T11:20:55;15.63;;;1.83;;
40254;SDS011;25973;52.368;4.940;2022-12-29T11:23:30;16.10;;;2.83;;
40254;SDS011;25973;52.368;4.940;2022-12-29T11:28:41;19.25;;;2.53;;
40254;SDS011;25973;52.368;4.940;2022-12-29T11:31:10;26.45;;;3.33;;
40254;SDS011;25973;52.368;4.940;2022-12-29T11:33:39;13.77;;;3.15;;
40254;SDS011;25973;52.368;4.940;2022-12-29T11:36:06;17.00;;;2.95;;
40254;SDS011;25973;52.368;4.940;2022-12-29T11:41:04;23.67;;;2.83;;
40254;SDS011;25973;52.368;4.940;2022-12-29T11:43:36;27.70;;;3.65;;
40254;SDS011;25973;52.368;4.940;2022-12-29T11:46:04;14.88;;;2.67;;
40254;SDS011;25973;52.368;4.940;2022-12-29T11:48:32;15.60;;;2.20;;
40254;SDS011;25973;52.368;4.940;2022-12-29T11:51:04;16.55;;;2.03;;
40254;SDS011;25973;52.368;4.940;2022-12-29T11:53:38;20.88;;;1.90;;
40254;SDS011;25973;52.368;4.940;2022-12-29T11:56:10;13.50;;;2.55;;
40254;SDS011;25973;52.368;4.940;2022-12-29T11:58:42;15.73;;;1.73;;
40254;SDS011;25973;52.368;4.940;2022-12-29T12:01:15;10.50;;;1.75;;
40254;SDS011;25973;52.368;4.940;2022-12-29T12:03:52;8.85;;;1.45;;
40254;SDS011;25973;52.368;4.940;2022-12-29T12:06:26;7.95;;;1.67;;
40254;SDS011;25973;52.368;4.940;2022-12-29T12:08:55;13.93;;;1.45;;
40254;SDS011;25973;52.368;4.940;2022-12-29T12:11:30;13.38;;;2.58;;
40254;SDS011;25973;52.368;4.940;2022-12-29T12:14:25;12.93;;;2.47;;
40254;SDS011;25973;52.368;4.940;2022-12-29T12:16:57;15.35;;;2.28;;
40254;SDS011;25973;52.368;4.940;2022-12-29T12:22:12;7.25;;;2.17;;
40254;SDS011;25973;52.368;4.940;2022-12-29T12:24:46;10.90;;;1.63;;
40254;SDS011;25973;52.368;4.940;2022-12-29T12:27:43;6.10;;;1.40;;
40254;SDS011;25973;52.368;4.940;2022-12-29T12:30:27;13.48;;;2.22;;
40254;SDS011;25973;52.368;4.940;2022-12-29T12:32:56;10.93;;;2.90;;
40254;SDS011;25973;52.368;4.940;2022-12-29T12:35:59;7.70;;;1.23;;
40254;SDS011;25973;52.368;4.940;2022-12-29T12:44:00;17.17;;;2.08;;
40254;SDS011;25973;52.368;4.940;2022-12-29T12:57:58;10.48;;;0.82;;
40254;SDS011;25973;52.368;4.940;2022-12-29T13:06:26;10.77;;;2.53;;
40254;SDS011;25973;52.368;4.940;2022-12-29T13:09:13;8.68;;;1.83;;
40254;SDS011;25973;52.368;4.940;2022-12-29T13:11:49;15.77;;;2.78;;
40254;SDS011;25973;52.368;4.940;2022-12-29T13:19:38;11.00;;;1.55;;
40254;SDS011;25973;52.368;4.940;2022-12-29T13:30:23;5.65;;;1.02;;
40254;SDS011;25973;52.368;4.940;2022-12-29T13:41:04;5.85;;;2.03;;
40254;SDS011;25973;52.368;4.940;2022-12-29T13:43:39;12.25;;;2.00;;
40254;SDS011;25973;52.368;4.940;2022-12-29T13:46:10;6.47;;;1.50;;
40254;SDS011;25973;52.368;4.940;2022-12-29T13:48:44;12.90;;;1.83;;
40254;SDS011;25973;52.368;4.940;2022-12-29T13:51:16;10.90;;;1.13;;
40254;SDS011;25973;52.368;4.940;2022-12-29T13:53:56;16.90;;;1.65;;
40254;SDS011;25973;52.368;4.940;2022-12-29T13:56:42;5.05;;;1.02;;
40254;SDS011;25973;52.368;4.940;2022-12-29T13:59:21;3.67;;;1.05;;
40254;SDS011;25973;52.368;4.940;2022-12-29T14:07:48;7.97;;;1.50;;
40254;SDS011;25973;52.368;4.940;2022-12-29T14:15:37;12.43;;;2.10;;
40254;SDS011;25973;52.368;4.940;2022-12-29T14:18:19;7.47;;;1.30;;
40254;SDS011;25973;52.368;4.940;2022-12-29T14:20:54;16.83;;;4.68;;
40254;SDS011;25973;52.368;4.940;2022-12-29T14:23:38;42.30;;;10.90;;
40254;SDS011;25973;52.368;4.940;2022-12-29T14:26:10;30.48;;;7.50;;
40254;SDS011;25973;52.368;4.940;2022-12-29T14:28:42;10.60;;;3.00;;
40254;SDS011;25973;52.368;4.940;2022-12-29T14:36:40;18.33;;;2.63;;
40254;SDS011;25973;52.368;4.940;2022-12-29T14:40:02;12.60;;;1.65;;
40254;SDS011;25973;52.368;4.940;2022-12-29T14:44:50;19.65;;;2.85;;
40254;SDS011;25973;52.368;4.940;2022-12-29T14:49:55;18.20;;;2.08;;
40254;SDS011;25973;52.368;4.940;2022-12-29T14:52:29;7.30;;;1.58;;
40254;SDS011;25973;52.368;4.940;2022-12-29T14:57:41;8.77;;;1.63;;
40254;SDS011;25973;52.368;4.940;2022-12-29T15:02:41;11.20;;;1.60;;
40254;SDS011;25973;52.368;4.940;2022-12-29T15:05:48;12.52;;;2.00;;
40254;SDS011;25973;52.368;4.940;2022-12-29T15:08:11;14.70;;;1.50;;
40254;SDS011;25973;52.368;4.940;2022-12-29T15:10:42;18.15;;;1.15;;
40254;SDS011;25973;52.368;4.940;2022-12-29T15:13:18;10.82;;;2.53;;
40254;SDS011;25973;52.368;4.940;2022-12-29T15:15:48;13.18;;;1.45;;
40254;SDS011;25973;52.368;4.940;2022-12-29T15:18:18;15.70;;;2.05;;
40254;SDS011;25973;52.368;4.940;2022-12-29T15:20:52;18.23;;;2.80;;
40254;SDS011;25973;52.368;4.940;2022-12-29T15:23:20;13.15;;;3.53;;
40254;SDS011;25973;52.368;4.940;2022-12-29T15:25:52;24.85;;;8.13;;
40254;SDS011;25973;52.368;4.940;2022-12-29T15:28:36;33.33;;;9.30;;
40254;SDS011;25973;52.368;4.940;2022-12-29T15:31:05;20.88;;;4.63;;
40254;SDS011;25973;52.368;4.940;2022-12-29T15:33:37;13.40;;;1.98;;
40254;SDS011;25973;52.368;4.940;2022-12-29T15:36:10;20.45;;;2.22;;
40254;SDS011;25973;52.368;4.940;2022-12-29T15:38:44;10.23;;;1.13;;
40254;SDS011;25973;52.368;4.940;2022-12-29T15:41:44;9.38;;;1.40;;
40254;SDS011;25973;52.368;4.940;2022-12-29T15:44:25;18.00;;;2.50;;
40254;SDS011;25973;52.368;4.940;2022-12-29T15:47:11;10.30;;;1.67;;
40254;SDS011;25973;52.368;4.940;2022-12-29T15:49:43;15.18;;;2.05;;
40254;SDS011;25973;52.368;4.940;2022-12-29T15:52:13;17.50;;;1.70;;
40254;SDS011;25973;52.368;4.940;2022-12-29T15:54:43;18.00;;;2.00;;
40254;SDS011;25973;52.368;4.940;2022-12-29T15:57:26;10.98;;;2.55;;
40254;SDS011;25973;52.368;4.940;2022-12-29T15:59:57;18.08;;;2.17;;
40254;SDS011;25973;52.368;4.940;2022-12-29T16:02:24;14.20;;;1.95;;
40254;SDS011;25973;52.368;4.940;2022-12-29T16:04:50;8.13;;;1.50;;
40254;SDS011;25973;52.368;4.940;2022-12-29T16:07:25;14.93;;;2.05;;
40254;SDS011;25973;52.368;4.940;2022-12-29T16:09:59;9.95;;;1.45;;
40254;SDS011;25973;52.368;4.940;2022-12-29T16:12:30;11.77;;;2.20;;
40254;SDS011;25973;52.368;4.940;2022-12-29T16:15:01;18.80;;;1.45;;
40254;SDS011;25973;52.368;4.940;2022-12-29T16:17:30;13.60;;;2.40;;
40254;SDS011;25973;52.368;4.940;2022-12-29T16:19:59;18.75;;;2.05;;
40254;SDS011;25973;52.368;4.940;2022-12-29T16:22:28;16.25;;;2.03;;
40254;SDS011;25973;52.368;4.940;2022-12-29T16:24:58;21.13;;;4.97;;
40254;SDS011;25973;52.368;4.940;2022-12-29T16:30:06;18.77;;;4.07;;
40254;SDS011;25973;52.368;4.940;2022-12-29T16:32:55;13.27;;;4.30;;
40254;SDS011;25973;52.368;4.940;2022-12-29T16:35:24;6.97;;;2.13;;
40254;SDS011;25973;52.368;4.940;2022-12-29T16:38:12;14.70;;;1.92;;
40254;SDS011;25973;52.368;4.940;2022-12-29T16:40:48;16.83;;;3.03;;
40254;SDS011;25973;52.368;4.940;2022-12-29T16:43:25;14.77;;;1.90;;
40254;SDS011;25973;52.368;4.940;2022-12-29T16:46:26;10.00;;;1.63;;
40254;SDS011;25973;52.368;4.940;2022-12-29T16:48:54;19.88;;;2.53;;
40254;SDS011;25973;52.368;4.940;2022-12-29T16:51:28;13.75;;;2.13;;
40254;SDS011;25973;52.368;4.940;2022-12-29T16:53:56;16.05;;;2.22;;
40254;SDS011;25973;52.368;4.940;2022-12-29T16:56:24;17.13;;;1.50;;
40254;SDS011;25973;52.368;4.940;2022-12-29T16:59:03;12.68;;;2.08;;
40254;SDS011;25973;52.368;4.940;2022-12-29T17:01:49;6.35;;;1.50;;
40254;SDS011;25973;52.368;4.940;2022-12-29T17:04:15;10.27;;;2.05;;
40254;SDS011;25973;52.368;4.940;2022-12-29T17:06:41;9.60;;;1.88;;
40254;SDS011;25973;52.368;4.940;2022-12-29T17:12:01;7.35;;;1.33;;
40254;SDS011;25973;52.368;4.940;2022-12-29T17:14:32;10.52;;;1.20;;
40254;SDS011;25973;52.368;4.940;2022-12-29T17:17:35;12.57;;;4.43;;
40254;SDS011;25973;52.368;4.940;2022-12-29T17:20:05;15.32;;;3.72;;
40254;SDS011;25973;52.368;4.940;2022-12-29T17:22:41;31.38;;;6.32;;